sensor_id;sensor_type;location;lat;lon;timestamp;P1;durP1;ratioP1;P2;durP2;ratioP2
11100;SDS011;5604;50.722;7.078;2023-07-31T00:00:12;4.33;;;3.10;;
11100;SDS011;5604;50.722;7.078;2023-07-31T00:02:40;6.23;;;3.00;;
11100;SDS011;5604;50.722;7.078;2023-07-31T00:05:08;6.07;;;3.20;;
11100;SDS011;5604;50.722;7.078;2023-07-31T00:07:37;4.53;;;3.47;;
11100;SDS011;5604;50.722;7.078;2023-07-31T00:10:05;4.33;;;2.90;;
11100;SDS011;5604;50.722;7.078;2023-07-31T00:12:34;4.90;;;3.10;;
11100;SDS011;5604;50.722;7.078;2023-07-31T00:15:03;6.40;;;3.13;;
11100;SDS011;5604;50.722;7.078;2023-07-31T00:17:32;6.07;;;2.90;;
11100;SDS011;5604;50.722;7.078;2023-07-31T00:20:00;3.87;;;3.47;;
11100;SDS011;5604;50.722;7.078;2023-07-31T00:22:28;3.73;;;2.83;;
11100;SDS011;5604;50.722;7.078;2023-07-31T00:24:56;4.40;;;2.97;;
11100;SDS011;5604;50.722;7.078;2023-07-31T00:27:26;6.20;;;3.00;;
11100;SDS011;5604;50.722;7.078;2023-07-31T00:29:54;7.63;;;2.63;;
11100;SDS011;5604;50.722;7.078;2023-07-31T00:32:23;6.77;;;2.80;;
11100;SDS011;5604;50.722;7.078;2023-07-31T00:34:52;4.77;;;2.60;;
11100;SDS011;5604;50.722;7.078;2023-07-31T00:37:20;4.13;;;2.50;;
11100;SDS011;5604;50.722;7.078;2023-07-31T00:39:48;3.63;;;2.10;;
11100;SDS011;5604;50.722;7.078;2023-07-31T00:42:16;4.40;;;2.50;;
11100;SDS011;5604;50.722;7.078;2023-07-31T00:44:44;6.20;;;2.90;;
11100;SDS011;5604;50.722;7.078;2023-07-31T00:47:12;5.50;;;2.90;;
11100;SDS011;5604;50.722;7.078;2023-07-31T00:49:41;4.30;;;2.60;;
11100;SDS011;5604;50.722;7.078;2023-07-31T00:52:10;4.23;;;2.63;;
11100;SDS011;5604;50.722;7.078;2023-07-31T00:54:38;3.87;;;2.20;;
11100;SDS011;5604;50.722;7.078;2023-07-31T00:57:06;4.27;;;2.70;;
11100;SDS011;5604;50.722;7.078;2023-07-31T00:59:36;4.97;;;2.67;;
11100;SDS011;5604;50.722;7.078;2023-07-31T01:02:04;4.50;;;2.40;;
11100;SDS011;5604;50.722;7.078;2023-07-31T01:04:33;6.13;;;2.70;;
11100;SDS011;5604;50.722;7.078;2023-07-31T01:07:04;2.73;;;2.23;;
11100;SDS011;5604;50.722;7.078;2023-07-31T01:09:40;4.30;;;2.77;;
11100;SDS011;5604;50.722;7.078;2023-07-31T01:12:12;2.50;;;2.17;;
11100;SDS011;5604;50.722;7.078;2023-07-31T01:14:50;2.53;;;2.33;;
11100;SDS011;5604;50.722;7.078;2023-07-31T01:17:19;2.30;;;2.10;;
11100;SDS011;5604;50.722;7.078;2023-07-31T01:19:47;3.00;;;2.27;;
11100;SDS011;5604;50.722;7.078;2023-07-31T01:22:27;3.43;;;2.23;;
11100;SDS011;5604;50.722;7.078;2023-07-31T01:25:05;4.50;;;2.43;;
11100;SDS011;5604;50.722;7.078;2023-07-31T01:27:48;3.67;;;2.53;;
11100;SDS011;5604;50.722;7.078;2023-07-31T01:30:21;2.63;;;2.30;;
11100;SDS011;5604;50.722;7.078;2023-07-31T01:32:50;5.53;;;2.70;;
11100;SDS011;5604;50.722;7.078;2023-07-31T01:35:19;3.03;;;2.27;;
11100;SDS011;5604;50.722;7.078;2023-07-31T01:37:48;3.87;;;2.60;;
11100;SDS011;5604;50.722;7.078;2023-07-31T01:40:16;5.47;;;2.63;;
11100;SDS011;5604;50.722;7.078;2023-07-31T01:42:44;3.83;;;3.03;;
11100;SDS011;5604;50.722;7.078;2023-07-31T01:45:15;5.47;;;2.67;;
11100;SDS011;5604;50.722;7.078;2023-07-31T01:47:43;4.07;;;2.47;;
11100;SDS011;5604;50.722;7.078;2023-07-31T01:50:11;5.10;;;2.73;;
11100;SDS011;5604;50.722;7.078;2023-07-31T01:52:39;3.60;;;2.60;;
11100;SDS011;5604;50.722;7.078;2023-07-31T01:55:08;3.43;;;3.00;;
11100;SDS011;5604;50.722;7.078;2023-07-31T01:57:36;7.10;;;3.17;;
11100;SDS011;5604;50.722;7.078;2023-07-31T02:00:04;4.30;;;2.63;;
11100;SDS011;5604;50.722;7.078;2023-07-31T02:02:41;3.80;;;2.90;;
11100;SDS011;5604;50.722;7.078;2023-07-31T02:05:09;4.37;;;2.87;;
11100;SDS011;5604;50.722;7.078;2023-07-31T02:07:37;4.70;;;3.10;;
11100;SDS011;5604;50.722;7.078;2023-07-31T02:10:05;4.57;;;2.87;;
11100;SDS011;5604;50.722;7.078;2023-07-31T02:12:35;4.83;;;2.80;;
11100;SDS011;5604;50.722;7.078;2023-07-31T02:15:03;3.97;;;2.87;;
11100;SDS011;5604;50.722;7.078;2023-07-31T02:17:31;5.37;;;2.90;;
11100;SDS011;5604;50.722;7.078;2023-07-31T02:20:01;6.10;;;3.30;;
11100;SDS011;5604;50.722;7.078;2023-07-31T02:22:31;6.70;;;3.00;;
11100;SDS011;5604;50.722;7.078;2023-07-31T02:24:59;6.07;;;2.77;;
11100;SDS011;5604;50.722;7.078;2023-07-31T02:27:27;6.50;;;3.30;;
11100;SDS011;5604;50.722;7.078;2023-07-31T02:29:55;3.87;;;2.80;;
11100;SDS011;5604;50.722;7.078;2023-07-31T02:32:25;4.77;;;2.80;;
11100;SDS011;5604;50.722;7.078;2023-07-31T02:34:53;4.70;;;2.83;;
11100;SDS011;5604;50.722;7.078;2023-07-31T02:37:23;6.00;;;3.37;;
11100;SDS011;5604;50.722;7.078;2023-07-31T02:39:51;6.47;;;3.10;;
11100;SDS011;5604;50.722;7.078;2023-07-31T02:42:19;5.23;;;2.80;;
11100;SDS011;5604;50.722;7.078;2023-07-31T02:44:47;4.43;;;2.80;;
11100;SDS011;5604;50.722;7.078;2023-07-31T02:47:17;5.77;;;3.23;;
11100;SDS011;5604;50.722;7.078;2023-07-31T02:49:45;5.57;;;3.00;;
11100;SDS011;5604;50.722;7.078;2023-07-31T02:52:13;7.83;;;3.00;;
11100;SDS011;5604;50.722;7.078;2023-07-31T02:54:43;4.93;;;3.37;;
11100;SDS011;5604;50.722;7.078;2023-07-31T02:57:11;5.80;;;3.57;;
11100;SDS011;5604;50.722;7.078;2023-07-31T02:59:39;7.00;;;3.13;;
11100;SDS011;5604;50.722;7.078;2023-07-31T03:02:07;6.30;;;3.17;;
11100;SDS011;5604;50.722;7.078;2023-07-31T03:04:35;5.73;;;3.37;;
11100;SDS011;5604;50.722;7.078;2023-07-31T03:07:04;7.07;;;3.70;;
11100;SDS011;5604;50.722;7.078;2023-07-31T03:09:32;4.67;;;3.17;;
11100;SDS011;5604;50.722;7.078;2023-07-31T03:12:01;4.97;;;3.10;;
11100;SDS011;5604;50.722;7.078;2023-07-31T03:14:30;7.20;;;3.00;;
11100;SDS011;5604;50.722;7.078;2023-07-31T03:16:59;3.40;;;2.80;;
11100;SDS011;5604;50.722;7.078;2023-07-31T03:19:27;6.83;;;3.07;;
11100;SDS011;5604;50.722;7.078;2023-07-31T03:21:58;7.20;;;3.10;;
11100;SDS011;5604;50.722;7.078;2023-07-31T03:24:28;5.37;;;3.50;;
11100;SDS011;5604;50.722;7.078;2023-07-31T03:26:56;4.87;;;3.17;;
11100;SDS011;5604;50.722;7.078;2023-07-31T03:29:26;7.03;;;3.33;;
11100;SDS011;5604;50.722;7.078;2023-07-31T03:31:54;5.77;;;3.17;;
11100;SDS011;5604;50.722;7.078;2023-07-31T03:34:22;4.90;;;2.83;;
11100;SDS011;5604;50.722;7.078;2023-07-31T03:36:50;3.90;;;2.80;;
11100;SDS011;5604;50.722;7.078;2023-07-31T03:39:18;10.40;;;4.07;;
11100;SDS011;5604;50.722;7.078;2023-07-31T03:41:46;6.83;;;3.10;;
11100;SDS011;5604;50.722;7.078;2023-07-31T03:44:16;5.40;;;3.37;;
11100;SDS011;5604;50.722;7.078;2023-07-31T03:46:46;4.87;;;3.20;;
11100;SDS011;5604;50.722;7.078;2023-07-31T03:49:14;11.33;;;3.60;;
11100;SDS011;5604;50.722;7.078;2023-07-31T03:51:42;5.37;;;3.40;;
11100;SDS011;5604;50.722;7.078;2023-07-31T03:54:11;8.37;;;3.43;;
11100;SDS011;5604;50.722;7.078;2023-07-31T03:56:39;3.40;;;3.00;;
11100;SDS011;5604;50.722;7.078;2023-07-31T03:59:08;4.10;;;3.03;;
11100;SDS011;5604;50.722;7.078;2023-07-31T04:01:36;4.93;;;3.00;;
11100;SDS011;5604;50.722;7.078;2023-07-31T04:04:05;3.20;;;2.63;;
11100;SDS011;5604;50.722;7.078;2023-07-31T04:06:33;5.97;;;3.13;;
11100;SDS011;5604;50.722;7.078;2023-07-31T04:09:02;6.07;;;3.63;;
11100;SDS011;5604;50.722;7.078;2023-07-31T04:11:30;3.90;;;2.97;;
11100;SDS011;5604;50.722;7.078;2023-07-31T04:13:58;6.67;;;3.47;;
11100;SDS011;5604;50.722;7.078;2023-07-31T04:16:26;4.13;;;3.20;;
11100;SDS011;5604;50.722;7.078;2023-07-31T04:18:54;4.77;;;2.97;;
11100;SDS011;5604;50.722;7.078;2023-07-31T04:21:23;4.97;;;3.53;;
11100;SDS011;5604;50.722;7.078;2023-07-31T04:23:51;8.17;;;3.53;;
11100;SDS011;5604;50.722;7.078;2023-07-31T04:26:22;5.73;;;3.67;;
11100;SDS011;5604;50.722;7.078;2023-07-31T04:28:50;5.47;;;3.27;;
11100;SDS011;5604;50.722;7.078;2023-07-31T04:31:18;3.43;;;2.90;;
11100;SDS011;5604;50.722;7.078;2023-07-31T04:33:46;5.67;;;3.30;;
11100;SDS011;5604;50.722;7.078;2023-07-31T04:36:14;5.33;;;3.33;;
11100;SDS011;5604;50.722;7.078;2023-07-31T04:38:43;4.83;;;3.00;;
11100;SDS011;5604;50.722;7.078;2023-07-31T04:41:12;6.70;;;3.17;;
11100;SDS011;5604;50.722;7.078;2023-07-31T04:43:40;4.97;;;3.40;;
11100;SDS011;5604;50.722;7.078;2023-07-31T04:46:08;4.60;;;3.30;;
11100;SDS011;5604;50.722;7.078;2023-07-31T04:48:36;4.87;;;3.30;;
11100;SDS011;5604;50.722;7.078;2023-07-31T04:51:04;5.97;;;3.33;;
11100;SDS011;5604;50.722;7.078;2023-07-31T04:53:32;4.23;;;3.33;;
11100;SDS011;5604;50.722;7.078;2023-07-31T04:56:01;3.93;;;3.03;;
11100;SDS011;5604;50.722;7.078;2023-07-31T04:58:29;7.03;;;3.20;;
11100;SDS011;5604;50.722;7.078;2023-07-31T05:00:57;5.77;;;3.20;;
11100;SDS011;5604;50.722;7.078;2023-07-31T05:03:25;4.33;;;3.40;;
11100;SDS011;5604;50.722;7.078;2023-07-31T05:05:54;3.70;;;2.87;;
11100;SDS011;5604;50.722;7.078;2023-07-31T05:08:22;7.43;;;3.10;;
11100;SDS011;5604;50.722;7.078;2023-07-31T05:10:50;5.37;;;3.17;;
11100;SDS011;5604;50.722;7.078;2023-07-31T05:13:19;5.13;;;3.47;;
11100;SDS011;5604;50.722;7.078;2023-07-31T05:15:47;5.03;;;3.47;;
11100;SDS011;5604;50.722;7.078;2023-07-31T05:18:16;5.57;;;3.13;;
11100;SDS011;5604;50.722;7.078;2023-07-31T05:20:44;4.87;;;3.00;;
11100;SDS011;5604;50.722;7.078;2023-07-31T05:23:12;5.83;;;3.20;;
11100;SDS011;5604;50.722;7.078;2023-07-31T05:25:40;4.37;;;3.20;;
11100;SDS011;5604;50.722;7.078;2023-07-31T05:28:08;4.13;;;2.87;;
11100;SDS011;5604;50.722;7.078;2023-07-31T05:30:37;3.73;;;2.93;;
11100;SDS011;5604;50.722;7.078;2023-07-31T05:33:05;4.60;;;3.13;;
11100;SDS011;5604;50.722;7.078;2023-07-31T05:35:33;4.20;;;2.90;;
11100;SDS011;5604;50.722;7.078;2023-07-31T05:38:01;4.97;;;3.20;;
11100;SDS011;5604;50.722;7.078;2023-07-31T05:40:31;3.60;;;2.93;;
11100;SDS011;5604;50.722;7.078;2023-07-31T05:42:59;3.33;;;2.63;;
11100;SDS011;5604;50.722;7.078;2023-07-31T05:45:28;4.10;;;2.90;;
11100;SDS011;5604;50.722;7.078;2023-07-31T05:47:57;4.03;;;2.70;;
11100;SDS011;5604;50.722;7.078;2023-07-31T05:50:25;2.97;;;2.47;;
11100;SDS011;5604;50.722;7.078;2023-07-31T05:52:53;3.77;;;2.70;;
11100;SDS011;5604;50.722;7.078;2023-07-31T05:55:21;2.70;;;2.50;;
11100;SDS011;5604;50.722;7.078;2023-07-31T05:57:50;3.70;;;2.80;;
11100;SDS011;5604;50.722;7.078;2023-07-31T06:00:18;3.83;;;2.90;;
11100;SDS011;5604;50.722;7.078;2023-07-31T06:02:47;4.00;;;2.93;;
11100;SDS011;5604;50.722;7.078;2023-07-31T06:05:16;4.60;;;2.90;;
11100;SDS011;5604;50.722;7.078;2023-07-31T06:07:44;3.30;;;2.77;;
11100;SDS011;5604;50.722;7.078;2023-07-31T06:10:12;4.03;;;3.00;;
11100;SDS011;5604;50.722;7.078;2023-07-31T06:12:40;3.83;;;3.07;;
11100;SDS011;5604;50.722;7.078;2023-07-31T06:15:09;4.57;;;2.93;;
11100;SDS011;5604;50.722;7.078;2023-07-31T06:17:37;4.53;;;3.00;;
11100;SDS011;5604;50.722;7.078;2023-07-31T06:20:06;3.90;;;2.77;;
11100;SDS011;5604;50.722;7.078;2023-07-31T06:22:36;5.87;;;3.37;;
11100;SDS011;5604;50.722;7.078;2023-07-31T06:25:04;5.80;;;3.63;;
11100;SDS011;5604;50.722;7.078;2023-07-31T06:27:33;5.40;;;3.37;;
11100;SDS011;5604;50.722;7.078;2023-07-31T06:30:01;9.47;;;3.57;;
11100;SDS011;5604;50.722;7.078;2023-07-31T06:32:30;5.23;;;3.70;;
11100;SDS011;5604;50.722;7.078;2023-07-31T06:34:58;5.33;;;3.63;;
11100;SDS011;5604;50.722;7.078;2023-07-31T06:37:26;5.23;;;3.67;;
11100;SDS011;5604;50.722;7.078;2023-07-31T06:39:55;7.27;;;4.10;;
11100;SDS011;5604;50.722;7.078;2023-07-31T06:42:23;11.03;;;4.00;;
11100;SDS011;5604;50.722;7.078;2023-07-31T06:44:54;6.03;;;4.23;;
11100;SDS011;5604;50.722;7.078;2023-07-31T06:47:22;8.07;;;3.90;;
11100;SDS011;5604;50.722;7.078;2023-07-31T06:49:50;8.97;;;4.53;;
11100;SDS011;5604;50.722;7.078;2023-07-31T06:52:18;6.40;;;3.63;;
11100;SDS011;5604;50.722;7.078;2023-07-31T06:54:57;9.80;;;3.97;;
11100;SDS011;5604;50.722;7.078;2023-07-31T06:57:30;6.20;;;4.00;;
11100;SDS011;5604;50.722;7.078;2023-07-31T06:59:58;5.43;;;4.00;;
11100;SDS011;5604;50.722;7.078;2023-07-31T07:02:26;5.27;;;3.90;;
11100;SDS011;5604;50.722;7.078;2023-07-31T07:04:54;5.63;;;3.90;;
11100;SDS011;5604;50.722;7.078;2023-07-31T07:07:22;7.27;;;4.17;;
11100;SDS011;5604;50.722;7.078;2023-07-31T07:09:50;6.43;;;3.17;;
11100;SDS011;5604;50.722;7.078;2023-07-31T07:12:20;6.77;;;3.73;;
11100;SDS011;5604;50.722;7.078;2023-07-31T07:14:48;5.50;;;3.63;;
11100;SDS011;5604;50.722;7.078;2023-07-31T07:17:16;5.97;;;3.50;;
11100;SDS011;5604;50.722;7.078;2023-07-31T07:19:44;5.37;;;3.83;;
11100;SDS011;5604;50.722;7.078;2023-07-31T07:22:13;5.33;;;3.67;;
11100;SDS011;5604;50.722;7.078;2023-07-31T07:24:41;4.77;;;3.80;;
11100;SDS011;5604;50.722;7.078;2023-07-31T07:27:09;5.90;;;3.77;;
11100;SDS011;5604;50.722;7.078;2023-07-31T07:29:40;5.87;;;3.37;;
11100;SDS011;5604;50.722;7.078;2023-07-31T07:32:08;4.73;;;3.60;;
11100;SDS011;5604;50.722;7.078;2023-07-31T07:34:36;5.53;;;3.80;;
11100;SDS011;5604;50.722;7.078;2023-07-31T07:37:05;6.20;;;3.60;;
11100;SDS011;5604;50.722;7.078;2023-07-31T07:39:33;4.83;;;3.47;;
11100;SDS011;5604;50.722;7.078;2023-07-31T07:42:01;5.03;;;3.47;;
11100;SDS011;5604;50.722;7.078;2023-07-31T07:44:30;7.53;;;3.63;;
11100;SDS011;5604;50.722;7.078;2023-07-31T07:46:59;5.53;;;3.70;;
11100;SDS011;5604;50.722;7.078;2023-07-31T07:49:28;5.57;;;3.70;;
11100;SDS011;5604;50.722;7.078;2023-07-31T07:51:56;6.73;;;4.10;;
11100;SDS011;5604;50.722;7.078;2023-07-31T07:54:24;6.57;;;3.40;;
11100;SDS011;5604;50.722;7.078;2023-07-31T07:56:52;6.33;;;3.80;;
11100;SDS011;5604;50.722;7.078;2023-07-31T07:59:20;7.93;;;3.93;;
11100;SDS011;5604;50.722;7.078;2023-07-31T08:01:48;7.43;;;4.43;;
11100;SDS011;5604;50.722;7.078;2023-07-31T08:04:17;5.83;;;3.97;;
11100;SDS011;5604;50.722;7.078;2023-07-31T08:06:45;8.53;;;4.40;;
11100;SDS011;5604;50.722;7.078;2023-07-31T08:09:13;5.90;;;4.10;;
11100;SDS011;5604;50.722;7.078;2023-07-31T08:11:41;6.70;;;4.47;;
11100;SDS011;5604;50.722;7.078;2023-07-31T08:14:09;8.03;;;4.10;;
11100;SDS011;5604;50.722;7.078;2023-07-31T08:16:38;6.00;;;4.20;;
11100;SDS011;5604;50.722;7.078;2023-07-31T08:19:06;5.40;;;3.73;;
11100;SDS011;5604;50.722;7.078;2023-07-31T08:21:36;6.03;;;4.10;;
11100;SDS011;5604;50.722;7.078;2023-07-31T08:24:04;6.50;;;3.27;;
11100;SDS011;5604;50.722;7.078;2023-07-31T08:26:32;10.13;;;4.20;;
11100;SDS011;5604;50.722;7.078;2023-07-31T08:29:00;11.10;;;4.07;;
11100;SDS011;5604;50.722;7.078;2023-07-31T08:31:28;8.33;;;4.17;;
11100;SDS011;5604;50.722;7.078;2023-07-31T08:33:56;10.20;;;4.13;;
11100;SDS011;5604;50.722;7.078;2023-07-31T08:36:25;6.97;;;3.90;;
11100;SDS011;5604;50.722;7.078;2023-07-31T08:38:57;7.33;;;3.57;;
11100;SDS011;5604;50.722;7.078;2023-07-31T08:41:25;5.27;;;3.70;;
11100;SDS011;5604;50.722;7.078;2023-07-31T08:43:55;7.70;;;4.33;;
11100;SDS011;5604;50.722;7.078;2023-07-31T08:46:23;8.07;;;3.70;;
11100;SDS011;5604;50.722;7.078;2023-07-31T08:48:51;4.27;;;3.37;;
11100;SDS011;5604;50.722;7.078;2023-07-31T08:51:20;8.60;;;3.73;;
11100;SDS011;5604;50.722;7.078;2023-07-31T08:53:48;8.93;;;3.80;;
11100;SDS011;5604;50.722;7.078;2023-07-31T08:56:18;8.10;;;4.13;;
11100;SDS011;5604;50.722;7.078;2023-07-31T08:58:46;6.10;;;3.47;;
11100;SDS011;5604;50.722;7.078;2023-07-31T09:01:15;7.10;;;3.67;;
11100;SDS011;5604;50.722;7.078;2023-07-31T09:03:43;5.33;;;3.13;;
11100;SDS011;5604;50.722;7.078;2023-07-31T09:06:12;8.77;;;3.70;;
11100;SDS011;5604;50.722;7.078;2023-07-31T09:08:41;7.20;;;3.40;;
11100;SDS011;5604;50.722;7.078;2023-07-31T09:11:09;4.53;;;2.90;;
11100;SDS011;5604;50.722;7.078;2023-07-31T09:13:39;5.57;;;3.17;;
11100;SDS011;5604;50.722;7.078;2023-07-31T09:16:08;5.07;;;3.07;;
11100;SDS011;5604;50.722;7.078;2023-07-31T09:18:45;4.93;;;3.17;;
11100;SDS011;5604;50.722;7.078;2023-07-31T09:21:20;6.27;;;3.53;;
11100;SDS011;5604;50.722;7.078;2023-07-31T09:23:49;7.57;;;3.87;;
11100;SDS011;5604;50.722;7.078;2023-07-31T09:26:29;5.63;;;3.20;;
11100;SDS011;5604;50.722;7.078;2023-07-31T09:29:00;6.50;;;3.20;;
11100;SDS011;5604;50.722;7.078;2023-07-31T09:31:32;4.10;;;3.03;;
11100;SDS011;5604;50.722;7.078;2023-07-31T09:34:01;6.87;;;3.03;;
11100;SDS011;5604;50.722;7.078;2023-07-31T09:36:29;4.90;;;3.20;;
11100;SDS011;5604;50.722;7.078;2023-07-31T09:39:01;3.63;;;3.30;;
11100;SDS011;5604;50.722;7.078;2023-07-31T09:41:30;10.57;;;3.53;;
11100;SDS011;5604;50.722;7.078;2023-07-31T09:43:59;5.57;;;3.03;;
11100;SDS011;5604;50.722;7.078;2023-07-31T09:46:27;3.77;;;2.90;;
11100;SDS011;5604;50.722;7.078;2023-07-31T09:49:03;4.13;;;3.00;;
11100;SDS011;5604;50.722;7.078;2023-07-31T09:51:32;3.17;;;2.43;;
11100;SDS011;5604;50.722;7.078;2023-07-31T09:54:11;4.87;;;2.57;;
11100;SDS011;5604;50.722;7.078;2023-07-31T09:56:41;4.27;;;2.50;;
11100;SDS011;5604;50.722;7.078;2023-07-31T09:59:13;4.73;;;3.00;;
11100;SDS011;5604;50.722;7.078;2023-07-31T10:01:42;5.30;;;2.57;;
11100;SDS011;5604;50.722;7.078;2023-07-31T10:04:11;5.53;;;2.33;;
11100;SDS011;5604;50.722;7.078;2023-07-31T10:06:40;4.53;;;2.40;;
11100;SDS011;5604;50.722;7.078;2023-07-31T10:09:11;4.37;;;2.47;;
11100;SDS011;5604;50.722;7.078;2023-07-31T10:11:41;5.07;;;2.33;;
11100;SDS011;5604;50.722;7.078;2023-07-31T10:14:11;3.83;;;2.30;;
11100;SDS011;5604;50.722;7.078;2023-07-31T10:16:41;6.93;;;2.70;;
11100;SDS011;5604;50.722;7.078;2023-07-31T10:19:10;4.20;;;2.10;;
11100;SDS011;5604;50.722;7.078;2023-07-31T10:21:38;5.13;;;2.33;;
11100;SDS011;5604;50.722;7.078;2023-07-31T10:24:08;3.50;;;2.37;;
11100;SDS011;5604;50.722;7.078;2023-07-31T10:26:36;3.60;;;2.20;;
11100;SDS011;5604;50.722;7.078;2023-07-31T10:29:05;2.37;;;1.93;;
11100;SDS011;5604;50.722;7.078;2023-07-31T10:31:35;2.10;;;1.90;;
11100;SDS011;5604;50.722;7.078;2023-07-31T10:34:04;2.83;;;1.93;;
11100;SDS011;5604;50.722;7.078;2023-07-31T10:36:32;3.87;;;2.20;;
11100;SDS011;5604;50.722;7.078;2023-07-31T10:39:02;2.30;;;1.97;;
11100;SDS011;5604;50.722;7.078;2023-07-31T10:41:32;3.93;;;2.13;;
11100;SDS011;5604;50.722;7.078;2023-07-31T10:44:01;5.17;;;2.60;;
11100;SDS011;5604;50.722;7.078;2023-07-31T10:46:29;3.63;;;2.07;;
11100;SDS011;5604;50.722;7.078;2023-07-31T10:48:59;4.33;;;2.10;;
11100;SDS011;5604;50.722;7.078;2023-07-31T10:51:34;3.10;;;1.97;;
11100;SDS011;5604;50.722;7.078;2023-07-31T10:54:15;1.83;;;1.63;;
11100;SDS011;5604;50.722;7.078;2023-07-31T10:56:46;3.03;;;1.67;;
11100;SDS011;5604;50.722;7.078;2023-07-31T10:59:14;3.33;;;1.63;;
11100;SDS011;5604;50.722;7.078;2023-07-31T11:01:54;1.97;;;1.43;;
11100;SDS011;5604;50.722;7.078;2023-07-31T11:04:25;2.50;;;1.70;;
11100;SDS011;5604;50.722;7.078;2023-07-31T11:06:57;2.27;;;1.70;;
11100;SDS011;5604;50.722;7.078;2023-07-31T11:09:27;1.80;;;1.63;;
11100;SDS011;5604;50.722;7.078;2023-07-31T11:11:58;2.13;;;1.70;;
11100;SDS011;5604;50.722;7.078;2023-07-31T11:14:26;6.87;;;2.00;;
11100;SDS011;5604;50.722;7.078;2023-07-31T11:16:55;3.83;;;1.90;;
11100;SDS011;5604;50.722;7.078;2023-07-31T11:19:23;1.70;;;1.60;;
11100;SDS011;5604;50.722;7.078;2023-07-31T11:21:58;1.77;;;1.60;;
11100;SDS011;5604;50.722;7.078;2023-07-31T11:24:26;3.57;;;1.50;;
11100;SDS011;5604;50.722;7.078;2023-07-31T11:26:55;2.70;;;1.70;;
11100;SDS011;5604;50.722;7.078;2023-07-31T11:29:23;2.30;;;1.40;;
11100;SDS011;5604;50.722;7.078;2023-07-31T11:31:55;3.53;;;1.70;;
11100;SDS011;5604;50.722;7.078;2023-07-31T11:34:23;3.07;;;1.57;;
11100;SDS011;5604;50.722;7.078;2023-07-31T11:36:56;2.03;;;1.37;;
11100;SDS011;5604;50.722;7.078;2023-07-31T11:39:25;3.70;;;1.57;;
11100;SDS011;5604;50.722;7.078;2023-07-31T11:41:58;2.00;;;1.43;;
11100;SDS011;5604;50.722;7.078;2023-07-31T11:44:26;2.87;;;1.37;;
11100;SDS011;5604;50.722;7.078;2023-07-31T11:47:05;1.47;;;1.30;;
11100;SDS011;5604;50.722;7.078;2023-07-31T11:49:43;1.83;;;1.50;;
11100;SDS011;5604;50.722;7.078;2023-07-31T11:52:13;1.70;;;1.43;;
11100;SDS011;5604;50.722;7.078;2023-07-31T11:54:41;2.93;;;1.63;;
11100;SDS011;5604;50.722;7.078;2023-07-31T11:57:10;1.67;;;1.50;;
11100;SDS011;5604;50.722;7.078;2023-07-31T11:59:38;3.43;;;1.50;;
11100;SDS011;5604;50.722;7.078;2023-07-31T12:02:07;1.80;;;1.20;;
11100;SDS011;5604;50.722;7.078;2023-07-31T12:04:35;1.50;;;1.13;;
11100;SDS011;5604;50.722;7.078;2023-07-31T12:07:05;2.13;;;1.20;;
11100;SDS011;5604;50.722;7.078;2023-07-31T12:09:35;2.53;;;1.30;;
11100;SDS011;5604;50.722;7.078;2023-07-31T12:12:03;2.40;;;1.40;;
11100;SDS011;5604;50.722;7.078;2023-07-31T12:14:35;2.27;;;2.00;;
11100;SDS011;5604;50.722;7.078;2023-07-31T12:17:09;1.40;;;1.30;;
11100;SDS011;5604;50.722;7.078;2023-07-31T12:19:37;2.00;;;1.80;;
11100;SDS011;5604;50.722;7.078;2023-07-31T12:22:10;3.73;;;1.87;;
11100;SDS011;5604;50.722;7.078;2023-07-31T12:24:41;2.93;;;1.87;;
11100;SDS011;5604;50.722;7.078;2023-07-31T12:27:11;2.70;;;2.50;;
11100;SDS011;5604;50.722;7.078;2023-07-31T12:29:41;3.53;;;2.20;;
11100;SDS011;5604;50.722;7.078;2023-07-31T12:32:20;3.57;;;2.90;;
11100;SDS011;5604;50.722;7.078;2023-07-31T12:34:49;3.53;;;2.43;;
11100;SDS011;5604;50.722;7.078;2023-07-31T12:37:17;3.67;;;2.33;;
11100;SDS011;5604;50.722;7.078;2023-07-31T12:39:46;3.63;;;2.70;;
11100;SDS011;5604;50.722;7.078;2023-07-31T12:42:16;3.40;;;2.87;;
11100;SDS011;5604;50.722;7.078;2023-07-31T12:44:45;4.50;;;2.87;;
11100;SDS011;5604;50.722;7.078;2023-07-31T12:47:13;4.40;;;2.90;;
11100;SDS011;5604;50.722;7.078;2023-07-31T12:49:41;2.93;;;2.67;;
11100;SDS011;5604;50.722;7.078;2023-07-31T12:52:09;4.27;;;2.87;;
11100;SDS011;5604;50.722;7.078;2023-07-31T12:54:38;3.27;;;2.97;;
11100;SDS011;5604;50.722;7.078;2023-07-31T12:57:07;4.17;;;2.83;;
11100;SDS011;5604;50.722;7.078;2023-07-31T12:59:35;3.77;;;2.93;;
11100;SDS011;5604;50.722;7.078;2023-07-31T13:02:04;3.20;;;2.90;;
11100;SDS011;5604;50.722;7.078;2023-07-31T13:04:32;3.20;;;2.90;;
11100;SDS011;5604;50.722;7.078;2023-07-31T13:07:01;3.83;;;3.50;;
11100;SDS011;5604;50.722;7.078;2023-07-31T13:09:29;3.43;;;3.13;;
11100;SDS011;5604;50.722;7.078;2023-07-31T13:11:58;4.20;;;3.47;;
11100;SDS011;5604;50.722;7.078;2023-07-31T13:14:27;3.63;;;3.33;;
11100;SDS011;5604;50.722;7.078;2023-07-31T13:16:56;3.37;;;3.03;;
11100;SDS011;5604;50.722;7.078;2023-07-31T13:19:24;3.60;;;3.30;;
11100;SDS011;5604;50.722;7.078;2023-07-31T13:21:52;3.13;;;2.83;;
11100;SDS011;5604;50.722;7.078;2023-07-31T13:24:20;4.57;;;3.13;;
11100;SDS011;5604;50.722;7.078;2023-07-31T13:26:49;3.40;;;3.00;;
11100;SDS011;5604;50.722;7.078;2023-07-31T13:29:17;3.37;;;3.07;;
11100;SDS011;5604;50.722;7.078;2023-07-31T13:31:47;3.30;;;3.00;;
11100;SDS011;5604;50.722;7.078;2023-07-31T13:34:15;4.63;;;2.60;;
11100;SDS011;5604;50.722;7.078;2023-07-31T13:36:43;2.70;;;2.50;;
11100;SDS011;5604;50.722;7.078;2023-07-31T13:39:13;2.73;;;2.50;;
11100;SDS011;5604;50.722;7.078;2023-07-31T13:41:41;2.50;;;2.30;;
11100;SDS011;5604;50.722;7.078;2023-07-31T13:44:09;2.73;;;2.03;;
11100;SDS011;5604;50.722;7.078;2023-07-31T13:46:37;2.10;;;1.90;;
11100;SDS011;5604;50.722;7.078;2023-07-31T13:49:07;3.07;;;2.10;;
11100;SDS011;5604;50.722;7.078;2023-07-31T13:51:35;2.47;;;2.07;;
11100;SDS011;5604;50.722;7.078;2023-07-31T13:54:05;2.07;;;1.80;;
11100;SDS011;5604;50.722;7.078;2023-07-31T13:56:34;2.47;;;2.17;;
11100;SDS011;5604;50.722;7.078;2023-07-31T13:59:02;2.13;;;1.93;;
11100;SDS011;5604;50.722;7.078;2023-07-31T14:01:30;3.97;;;2.23;;
11100;SDS011;5604;50.722;7.078;2023-07-31T14:03:59;2.97;;;2.20;;
11100;SDS011;5604;50.722;7.078;2023-07-31T14:06:28;2.53;;;2.10;;
11100;SDS011;5604;50.722;7.078;2023-07-31T14:08:57;3.67;;;2.07;;
11100;SDS011;5604;50.722;7.078;2023-07-31T14:11:25;2.67;;;2.20;;
11100;SDS011;5604;50.722;7.078;2023-07-31T14:13:54;5.80;;;1.93;;
11100;SDS011;5604;50.722;7.078;2023-07-31T14:16:23;2.47;;;2.03;;
11100;SDS011;5604;50.722;7.078;2023-07-31T14:18:51;2.30;;;2.10;;
11100;SDS011;5604;50.722;7.078;2023-07-31T14:21:20;2.57;;;2.10;;
11100;SDS011;5604;50.722;7.078;2023-07-31T14:23:50;3.43;;;2.03;;
11100;SDS011;5604;50.722;7.078;2023-07-31T14:26:18;4.40;;;1.97;;
11100;SDS011;5604;50.722;7.078;2023-07-31T14:28:46;2.83;;;1.87;;
11100;SDS011;5604;50.722;7.078;2023-07-31T14:31:14;2.03;;;1.83;;
11100;SDS011;5604;50.722;7.078;2023-07-31T14:33:43;3.07;;;2.27;;
11100;SDS011;5604;50.722;7.078;2023-07-31T14:36:11;1.90;;;1.73;;
11100;SDS011;5604;50.722;7.078;2023-07-31T14:38:39;2.30;;;2.10;;
11100;SDS011;5604;50.722;7.078;2023-07-31T14:41:09;2.87;;;2.00;;
11100;SDS011;5604;50.722;7.078;2023-07-31T14:43:37;5.87;;;1.70;;
11100;SDS011;5604;50.722;7.078;2023-07-31T14:46:05;2.37;;;2.00;;
11100;SDS011;5604;50.722;7.078;2023-07-31T14:48:33;2.30;;;2.10;;
11100;SDS011;5604;50.722;7.078;2023-07-31T14:51:01;1.90;;;1.70;;
11100;SDS011;5604;50.722;7.078;2023-07-31T14:53:29;1.83;;;1.57;;
11100;SDS011;5604;50.722;7.078;2023-07-31T14:55:57;2.20;;;1.60;;
11100;SDS011;5604;50.722;7.078;2023-07-31T14:58:27;2.33;;;2.10;;
11100;SDS011;5604;50.722;7.078;2023-07-31T15:00:55;1.93;;;1.80;;
11100;SDS011;5604;50.722;7.078;2023-07-31T15:03:23;2.10;;;1.90;;
11100;SDS011;5604;50.722;7.078;2023-07-31T15:05:53;1.83;;;1.70;;
11100;SDS011;5604;50.722;7.078;2023-07-31T15:08:21;3.70;;;1.83;;
11100;SDS011;5604;50.722;7.078;2023-07-31T15:10:49;2.30;;;2.10;;